Time;durP1;ratioP1;P1;durP2;ratioP2;P2;SDS_P1;SDS_P2;PMS_P1;PMS_P2;Temp;Humidity;BMP_temperature;BMP_pressure;BME280_temperature;BME280_humidity;BME280_pressure;Samples;Min_cycle;Max_cycle;Signal;HPM_P1;HPM_P2
2021/04/05 00:01:29;;;;;;;35.23;17.77;;;;;;;1.22;56.95;98458.93;2210147;80;21268;-77
2021/04/05 00:04:30;;;;;;;38.47;19.27;;;;;;;1.23;57.02;98456.83;2210238;80;21141;-77
2021/04/05 00:07:31;;;;;;;38.50;19.47;;;;;;;1.23;56.80;98445.66;2210034;80;21265;-76
2021/04/05 00:10:32;;;;;;;36.80;18.97;;;;;;;1.24;56.90;98441.88;2210099;80;21252;-77
2021/04/05 00:13:33;;;;;;;43.20;19.50;;;;;;;1.23;56.96;98435.38;2210120;80;21534;-77
2021/04/05 00:16:34;;;;;;;42.63;19.17;;;;;;;1.24;56.93;98439.71;2210006;80;21459;-77
2021/04/05 00:19:35;;;;;;;35.73;18.67;;;;;;;1.25;57.11;98428.61;2210117;80;21122;-77
2021/04/05 00:22:36;;;;;;;42.33;20.17;;;;;;;1.25;57.11;98432.47;2210108;80;21138;-77
2021/04/05 00:25:37;;;;;;;34.57;18.70;;;;;;;1.22;57.12;98429.36;2210119;80;21288;-77
2021/04/05 00:28:39;;;;;;;41.83;19.33;;;;;;;1.22;57.21;98420.36;2210064;80;21297;-77
2021/04/05 00:31:40;;;;;;;42.40;20.23;;;;;;;1.22;57.27;98419.48;2210118;80;21110;-76
2021/04/05 00:34:41;;;;;;;34.40;17.23;;;;;;;1.18;57.23;98418.48;2210034;80;21264;-77
2021/04/05 00:37:42;;;;;;;42.33;19.17;;;;;;;1.18;57.56;98415.03;2209995;80;21296;-77
2021/04/05 00:40:43;;;;;;;39.60;19.87;;;;;;;1.15;57.59;98405.50;2210073;80;21460;-78
2021/04/05 00:43:44;;;;;;;34.33;17.83;;;;;;;1.14;57.68;98400.30;2210093;80;21241;-77
2021/04/05 00:46:45;;;;;;;34.80;15.90;;;;;;;1.13;57.88;98399.83;2210124;80;21256;-78
2021/04/05 00:49:46;;;;;;;34.50;19.23;;;;;;;1.12;58.31;98389.07;2210144;80;21138;-77
2021/04/05 00:52:48;;;;;;;38.27;20.20;;;;;;;1.10;57.81;98381.70;2210283;80;21515;-77
2021/04/05 00:55:49;;;;;;;44.47;19.13;;;;;;;1.11;58.05;98372.77;2210002;80;21177;-76
2021/04/05 00:58:50;;;;;;;47.47;21.10;;;;;;;1.13;58.07;98372.42;2209975;80;21264;-76
2021/04/05 01:01:51;;;;;;;40.00;19.60;;;;;;;1.11;58.04;98362.48;2210135;80;21126;-77
2021/04/05 01:04:52;;;;;;;44.60;20.63;;;;;;;1.10;58.29;98347.87;2210187;81;21118;-76
2021/04/05 01:07:53;;;;;;;38.47;19.57;;;;;;;1.12;58.30;98345.38;2210009;80;21531;-77
2021/04/05 01:10:54;;;;;;;39.40;17.87;;;;;;;1.11;58.55;98335.91;2210045;80;21427;-77
2021/04/05 01:13:55;;;;;;;45.67;21.07;;;;;;;1.11;58.63;98335.50;2210051;80;21245;-78
2021/04/05 01:16:56;;;;;;;45.80;19.93;;;;;;;1.10;58.55;98330.30;2210018;80;21130;-77
2021/04/05 01:19:57;;;;;;;42.57;20.93;;;;;;;1.12;58.84;98320.55;2210324;80;21167;-77
2021/04/05 01:22:58;;;;;;;44.47;20.67;;;;;;;1.12;58.68;98315.81;2210168;80;21264;-78
2021/04/05 01:25:59;;;;;;;35.37;18.27;;;;;;;1.12;58.90;98314.52;2210069;80;21539;-77
2021/04/05 01:29:00;;;;;;;40.60;21.00;;;;;;;1.11;58.94;98309.80;2210360;80;21146;-77
2021/04/05 01:32:01;;;;;;;38.93;19.80;;;;;;;1.11;59.04;98309.80;2210179;80;21272;-77
2021/04/05 01:35:02;;;;;;;41.13;20.63;;;;;;;1.10;59.14;98304.18;2210045;80;21099;-77
2021/04/05 01:38:03;;;;;;;44.23;20.57;;;;;;;1.09;59.38;98302.42;2210473;80;21443;-77
2021/04/05 01:41:04;;;;;;;42.10;21.13;;;;;;;1.09;59.30;98293.43;2210183;80;21087;-78
2021/04/05 01:44:05;;;;;;;45.60;21.87;;;;;;;1.09;59.35;98293.43;2210092;80;21252;-77
2021/04/05 01:47:06;;;;;;;45.40;20.33;;;;;;;1.08;59.31;98287.82;2210196;80;21252;-78
2021/04/05 01:50:07;;;;;;;42.40;19.47;;;;;;;1.08;59.46;98280.11;2210336;80;21132;-78
2021/04/05 01:53:08;;;;;;;38.87;19.17;;;;;;;1.09;59.62;98269.42;2210130;80;21539;-77
2021/04/05 01:56:09;;;;;;;46.13;20.17;;;;;;;1.10;59.50;98268.20;2210057;80;21413;-78
2021/04/05 01:59:10;;;;;;;42.50;19.43;;;;;;;1.11;59.63;98267.78;2210145;80;21118;-78
2021/04/05 02:02:12;;;;;;;37.10;18.10;;;;;;;1.11;59.70;98263.52;2210505;81;21134;-78
2021/04/05 02:05:13;;;;;;;35.47;17.70;;;;;;;1.09;59.92;98261.71;2210074;80;21130;-77
2021/04/05 02:08:14;;;;;;;37.37;20.13;;;;;;;1.07;59.91;98256.51;2210305;81;21110;-78
2021/04/05 02:11:15;;;;;;;41.40;19.90;;;;;;;1.04;59.83;98257.67;2210424;80;21244;-77
2021/04/05 02:14:16;;;;;;;45.73;19.63;;;;;;;1.04;59.87;98258.08;2210144;80;21249;-78
2021/04/05 02:17:17;;;;;;;37.33;18.20;;;;;;;1.03;60.04;98253.76;2210103;80;21710;-78
2021/04/05 02:20:18;;;;;;;40.30;18.53;;;;;;;1.01;60.13;98247.27;2210219;80;21264;-78
2021/04/05 02:23:19;;;;;;;37.47;19.60;;;;;;;1.02;60.17;98242.60;2210299;80;21249;-77
2021/04/05 02:26:20;;;;;;;34.23;18.73;;;;;;;1.02;60.10;98238.74;2209119;80;21538;-77
2021/04/05 02:29:21;;;;;;;48.60;19.33;;;;;;;1.03;60.07;98231.50;2213246;80;21300;-78
2021/04/05 02:32:22;;;;;;;33.13;16.97;;;;;;;1.03;59.99;98226.77;2216539;80;21232;-78
2021/04/05 02:35:23;;;;;;;34.50;16.77;;;;;;;1.04;60.09;98220.81;2216486;80;21126;-77
2021/04/05 02:38:24;;;;;;;35.63;18.77;;;;;;;1.04;60.36;98206.68;2216435;80;21264;-77
2021/04/05 02:41:25;;;;;;;38.17;17.63;;;;;;;1.05;60.13;98211.88;2217057;80;21446;-76
2021/04/05 02:44:26;;;;;;;36.87;17.27;;;;;;;1.05;60.07;98206.73;2217451;80;21257;-77
2021/04/05 02:47:27;;;;;;;33.33;17.37;;;;;;;1.06;60.15;98198.62;2217335;80;21252;-77
2021/04/05 02:50:28;;;;;;;35.77;16.57;;;;;;;1.07;60.13;98188.39;2217678;80;21122;-78
2021/04/05 02:53:29;;;;;;;46.07;23.27;;;;;;;1.09;60.36;98181.62;2217736;80;21248;-77
2021/04/05 02:56:30;;;;;;;29.83;16.33;;;;;;;1.09;60.12;98175.60;2217338;80;21288;-78
2021/04/05 02:59:31;;;;;;;31.27;15.87;;;;;;;1.10;60.06;98174.38;2217564;80;21276;-78
2021/04/05 03:02:32;;;;;;;32.47;16.13;;;;;;;1.09;60.08;98166.20;2218121;80;21134;-78
2021/04/05 03:05:33;;;;;;;30.47;15.47;;;;;;;1.09;59.98;98161.06;2217581;80;21244;-77
2021/04/05 03:08:35;;;;;;;29.67;16.40;;;;;;;1.10;60.09;98160.23;2217636;80;21245;-78
2021/04/05 03:11:38;;;;;;;34.50;16.07;;;;;;;1.11;60.27;98154.69;2217434;80;21181;-78
2021/04/05 03:14:39;;;;;;;30.00;15.53;;;;;;;1.11;60.05;98145.69;2217610;80;21126;-78
2021/04/05 03:17:40;;;;;;;30.30;15.63;;;;;;;1.12;60.02;98142.30;2217668;80;21300;-78
2021/04/05 03:20:41;;;;;;;33.27;17.50;;;;;;;1.11;60.03;98144.00;2217761;80;21526;-78
2021/04/05 03:23:42;;;;;;;34.90;17.10;;;;;;;1.12;59.98;98129.45;2217580;80;21272;-78
2021/04/05 03:26:43;;;;;;;29.63;15.43;;;;;;;1.14;60.06;98122.67;2217651;80;21138;-77
2021/04/05 03:29:45;;;;;;;29.50;15.30;;;;;;;1.12;60.02;98121.33;2212860;80;21273;-78
2021/04/05 03:32:46;;;;;;;29.30;14.97;;;;;;;1.11;60.08;98113.16;2210494;80;21583;-79
2021/04/05 03:35:47;;;;;;;30.67;15.47;;;;;;;1.15;60.00;98109.00;2210292;80;21300;-77
2021/04/05 03:38:48;;;;;;;34.63;15.70;;;;;;;1.17;59.93;98108.23;2210233;80;21145;-79
2021/04/05 03:41:49;;;;;;;32.27;15.63;;;;;;;1.17;59.89;98100.53;2210313;80;21249;-77
2021/04/05 03:44:50;;;;;;;28.07;14.63;;;;;;;1.16;59.89;98086.33;2210119;80;21555;-78
2021/04/05 03:47:51;;;;;;;26.50;13.10;;;;;;;1.15;59.87;98080.72;2210512;80;21110;-77
2021/04/05 03:50:53;;;;;;;29.43;15.67;;;;;;;1.15;60.13;98073.89;2210458;80;21272;-78
2021/04/05 03:53:54;;;;;;;29.70;14.37;;;;;;;1.13;59.88;98065.25;2210166;80;21531;-78
2021/04/05 03:56:55;;;;;;;31.63;16.37;;;;;;;1.13;59.83;98057.95;2210105;80;21288;-77
2021/04/05 03:59:56;;;;;;;31.17;15.80;;;;;;;1.14;59.90;98045.15;2210307;80;21799;-78
2021/04/05 04:02:57;;;;;;;28.03;15.30;;;;;;;1.16;59.93;98036.20;2210320;80;21138;-78
2021/04/05 04:06:01;;;;;;;28.57;14.53;;;;;;;1.19;59.82;98038.48;2210685;80;21401;-77
2021/04/05 04:09:01;;;;;;;25.40;13.60;;;;;;;1.18;59.90;98028.14;2210022;81;21558;-78
2021/04/05 04:12:02;;;;;;;26.60;14.47;;;;;;;1.18;59.90;98022.59;2210480;80;21236;-78
2021/04/05 04:15:03;;;;;;;31.77;15.43;;;;;;;1.19;59.86;98020.48;2210258;81;21284;-77
2021/04/05 04:18:05;;;;;;;30.23;15.30;;;;;;;1.23;59.73;98003.05;2210417;81;21193;-77
2021/04/05 04:21:06;;;;;;;30.33;16.00;;;;;;;1.28;59.71;97994.22;2210217;80;21146;-77
2021/04/05 04:24:07;;;;;;;26.57;14.03;;;;;;;1.30;59.60;97991.70;2210175;80;21260;-77
2021/04/05 04:27:08;;;;;;;23.77;13.97;;;;;;;1.36;59.54;97985.48;2210139;80;21157;-78
2021/04/05 04:30:09;;;;;;;23.47;13.73;;;;;;;1.41;59.42;97968.51;2210064;80;21284;-78
2021/04/05 04:33:10;;;;;;;24.33;13.23;;;;;;;1.45;59.33;97960.07;2210338;80;21340;-78
2021/04/05 04:36:11;;;;;;;24.13;14.37;;;;;;;1.52;59.19;97954.30;2210237;80;21296;-78
2021/04/05 04:39:12;;;;;;;49.83;24.80;;;;;;;1.59;59.04;97953.27;2210321;80;21147;-78
2021/04/05 04:42:13;;;;;;;28.07;13.70;;;;;;;1.67;58.92;97936.80;2210236;80;21562;-78
2021/04/05 04:45:15;;;;;;;22.30;12.60;;;;;;;1.78;58.60;97936.75;2210606;81;21134;-77
2021/04/05 04:48:16;;;;;;;31.80;12.80;;;;;;;1.91;58.17;97925.14;2210272;80;21257;-78
2021/04/05 04:51:17;;;;;;;19.13;11.83;;;;;;;2.06;57.92;97924.73;2210366;80;21240;-78
2021/04/05 04:54:18;;;;;;;22.43;13.47;;;;;;;2.21;57.61;97929.06;2210159;80;21404;-78
2021/04/05 04:57:19;;;;;;;28.03;11.63;;;;;;;2.32;57.25;97925.09;2210049;80;21303;-77
2021/04/05 05:00:20;;;;;;;25.00;12.63;;;;;;;2.45;56.57;97916.90;2210390;80;21181;-78
2021/04/05 05:03:21;;;;;;;24.73;11.13;;;;;;;2.58;56.49;97909.52;2210346;80;21249;-79
2021/04/05 05:06:22;;;;;;;24.67;11.40;;;;;;;2.70;56.28;97911.18;2210236;80;21252;-79
2021/04/05 05:09:23;;;;;;;21.27;11.53;;;;;;;2.85;55.80;97908.60;2210516;80;21099;-80
2021/04/05 05:12:24;;;;;;;18.53;11.70;;;;;;;3.00;55.71;97900.41;2210052;80;21527;-79
2021/04/05 05:15:25;;;;;;;20.93;11.70;;;;;;;3.15;55.14;97889.20;2210150;80;21253;-79
2021/04/05 05:18:27;;;;;;;21.27;11.73;;;;;;;3.27;54.52;97883.89;2209786;80;21174;-79
2021/04/05 05:21:28;;;;;;;19.00;11.57;;;;;;;3.37;54.61;97866.52;2209484;80;21515;-79
2021/04/05 05:24:29;;;;;;;18.70;10.63;;;;;;;3.53;54.05;97867.37;2209597;80;21230;-80
2021/04/05 05:27:30;;;;;;;19.10;10.93;;;;;;;3.69;53.34;97856.57;2209677;80;21114;-79
2021/04/05 05:30:31;;;;;;;16.83;9.90;;;;;;;3.86;53.53;97854.37;2209618;80;21621;-78
2021/04/05 05:33:32;;;;;;;15.47;10.33;;;;;;;4.02;52.60;97845.25;2210653;81;21154;-80
2021/04/05 05:36:33;;;;;;;17.63;9.50;;;;;;;4.17;52.10;97845.57;2210465;80;21174;-79
2021/04/05 05:39:34;;;;;;;17.90;10.60;;;;;;;4.30;51.54;97826.90;2210389;81;21134;-80
2021/04/05 05:42:35;;;;;;;17.50;9.73;;;;;;;4.42;51.56;97822.42;2210483;80;21135;-79
2021/04/05 05:45:36;;;;;;;17.23;9.73;;;;;;;4.57;51.10;97822.72;2210233;81;21280;-78
2021/04/05 05:48:37;;;;;;;18.90;9.80;;;;;;;4.73;50.57;97827.75;2210450;81;21385;-79
2021/04/05 05:51:38;;;;;;;15.13;9.17;;;;;;;4.92;49.73;97818.62;2210558;81;21149;-79
2021/04/05 05:54:39;;;;;;;17.60;8.77;;;;;;;5.04;49.32;97812.36;2210381;81;21150;-79
2021/04/05 05:57:40;;;;;;;17.17;9.77;;;;;;;5.17;48.75;97806.97;2210502;81;21181;-79
2021/04/05 06:00:41;;;;;;;19.63;8.63;;;;;;;5.32;49.10;97809.84;2210645;81;21126;-80
2021/04/05 06:03:42;;;;;;;15.23;8.90;;;;;;;5.49;48.57;97801.91;2210428;81;21142;-78
2021/04/05 06:06:43;;;;;;;19.80;9.17;;;;;;;5.65;48.23;97805.59;2210541;81;21559;-80
2021/04/05 06:09:44;;;;;;;14.27;8.87;;;;;;;5.76;47.80;97802.31;2210682;81;21098;-81
2021/04/05 06:12:46;;;;;;;14.20;7.70;;;;;;;5.91;47.52;97800.39;2210523;81;21127;-79
2021/04/05 06:15:47;;;;;;;19.40;9.23;;;;;;;6.06;47.08;97791.95;2210594;81;21264;-79
2021/04/05 06:18:48;;;;;;;15.10;9.50;;;;;;;6.19;47.17;97796.46;2210556;81;21154;-79
2021/04/05 06:21:49;;;;;;;15.43;9.20;;;;;;;6.43;47.33;97792.42;2210505;81;21134;-78
2021/04/05 06:24:50;;;;;;;12.50;8.57;;;;;;;6.63;46.46;97785.73;2210504;81;21241;-81
2021/04/05 06:27:51;;;;;;;15.87;9.30;;;;;;;6.83;45.40;97780.31;2210744;81;21142;-79
2021/04/05 06:30:52;;;;;;;15.10;8.93;;;;;;;6.97;45.38;97772.69;2210684;81;21162;-80
2021/04/05 06:33:53;;;;;;;13.37;8.27;;;;;;;7.14;45.37;97758.56;2211156;81;21138;-80
2021/04/05 06:36:54;;;;;;;16.60;7.57;;;;;;;7.26;44.72;97758.65;2210776;81;21158;-79
2021/04/05 06:39:55;;;;;;;14.87;8.00;;;;;;;7.33;43.12;97737.94;2210822;81;21130;-79
2021/04/05 06:42:56;;;;;;;56.67;9.83;;;;;;;7.45;44.21;97739.75;2210541;81;21261;-79
2021/04/05 06:45:57;;;;;;;11.77;7.00;;;;;;;7.63;42.81;97726.88;2210667;81;21248;-79
2021/04/05 06:49:01;;;;;;;17.33;7.87;;;;;;;7.67;42.26;97726.03;2210844;81;21117;-81
2021/04/05 06:52:02;;;;;;;12.73;7.00;;;;;;;7.75;42.66;97731.70;2210780;81;21138;-78
2021/04/05 06:55:03;;;;;;;11.10;7.73;;;;;;;7.88;41.56;97723.13;2210399;81;21245;-78
2021/04/05 06:58:05;;;;;;;13.03;7.97;;;;;;;8.03;41.82;97716.70;2210568;81;21306;-79
2021/04/05 07:01:06;;;;;;;11.93;7.37;;;;;;;8.19;41.85;97711.12;2210632;81;21122;-79
2021/04/05 07:04:07;;;;;;;15.23;7.90;;;;;;;8.31;41.27;97700.33;2210884;81;21117;-81
2021/04/05 07:07:08;;;;;;;14.40;7.63;;;;;;;8.42;41.50;97700.38;2210537;81;21559;-78
2021/04/05 07:10:09;;;;;;;11.73;8.43;;;;;;;8.65;41.03;97699.55;2210624;81;21415;-81
2021/04/05 07:13:12;;;;;;;11.30;7.60;;;;;;;8.78;40.94;97693.53;2210637;81;21159;-77
2021/04/05 07:16:13;;;;;;;13.83;8.40;;;;;;;8.98;40.70;97700.91;2210884;81;21142;-78
2021/04/05 07:19:14;;;;;;;16.87;7.93;;;;;;;9.16;40.66;97695.69;2211204;81;21142;-78
2021/04/05 07:22:15;;;;;;;14.50;8.13;;;;;;;9.36;39.87;97688.28;2210483;81;21133;-79
2021/04/05 07:25:16;;;;;;;14.07;7.03;;;;;;;9.39;39.74;97688.27;2212021;81;21134;-79
2021/04/05 07:28:17;;;;;;;153.85;17.32;;;;;;;13.21;42.19;97669.16;2211748;81;21103;-81
2021/04/05 07:31:19;;;;;;;386.73;33.95;;;;;;;15.60;37.18;97660.47;2217997;80;21145;-80
2021/04/05 07:34:20;;;;;;;96.50;13.85;;;;;;;16.53;32.75;97653.44;2218642;80;21110;-82
2021/04/05 07:37:21;;;;;;;77.95;11.50;;;;;;;15.81;30.82;97655.11;2219112;80;21177;-80
2021/04/05 07:40:22;;;;;;;89.90;12.75;;;;;;;14.82;32.96;97651.05;2219283;80;21142;-80
2021/04/05 07:43:23;;;;;;;125.82;15.32;;;;;;;14.46;33.04;97644.41;2219244;80;21424;-80
2021/04/05 07:46:24;;;;;;;36.55;9.18;;;;;;;14.37;34.88;97641.96;2219457;80;21098;-80
2021/04/05 07:49:25;;;;;;;71.02;13.25;;;;;;;14.24;33.80;97644.00;2219190;80;21106;-80
2021/04/05 07:52:26;;;;;;;69.40;12.18;;;;;;;14.27;35.06;97645.23;2218946;80;21268;-81
2021/04/05 07:55:27;;;;;;;34.43;8.10;;;;;;;14.63;36.31;97635.70;2219291;80;21142;-81
2021/04/05 07:58:28;;;;;;;47.85;10.08;;;;;;;15.13;35.04;97619.17;2219287;80;21177;-81
2021/04/05 08:01:29;;;;;;;29.07;8.40;;;;;;;15.10;35.01;97619.25;2219275;80;21149;-80
2021/04/05 08:04:30;;;;;;;18.30;7.28;;;;;;;15.03;33.41;97601.91;2219462;80;21157;-81
2021/04/05 08:07:31;;;;;;;29.87;10.13;;;;;;;15.09;35.56;97597.81;2219037;80;21106;-80
2021/04/05 08:10:33;;;;;;;39.42;9.98;;;;;;;15.25;31.75;97585.13;2218853;80;21429;-80
2021/04/05 08:13:34;;;;;;;18.90;8.88;;;;;;;15.14;35.22;97598.56;2219093;80;21696;-81
2021/04/05 08:16:35;;;;;;;17.87;8.20;;;;;;;15.28;33.65;97588.54;2218958;80;21299;-80
2021/04/05 08:19:36;;;;;;;19.45;8.25;;;;;;;15.11;32.19;97565.78;2219658;80;21236;-80
2021/04/05 08:22:38;;;;;;;19.07;8.38;;;;;;;14.97;34.39;97561.34;2219701;80;21142;-80
2021/04/05 08:25:44;;;;;;;21.30;8.65;;;;;;;14.77;32.46;97549.17;2219648;80;21139;-79
2021/04/05 08:28:44;;;;;;;18.17;8.05;;;;;;;14.13;32.34;97534.91;2219199;80;21162;-79
2021/04/05 08:31:45;;;;;;;17.42;8.25;;;;;;;14.00;33.40;97531.26;2221859;80;21165;-81
2021/04/05 08:34:47;;;;;;;20.85;9.13;;;;;;;13.80;33.42;97529.50;2222659;80;21384;-81
2021/04/05 08:37:48;;;;;;;20.27;8.50;;;;;;;13.68;33.64;97520.13;2222588;80;21181;-79
2021/04/05 08:40:49;;;;;;;14.00;8.38;;;;;;;13.68;34.54;97505.72;2222301;80;21141;-79
2021/04/05 08:43:50;;;;;;;23.27;9.00;;;;;;;13.95;35.34;97514.77;2222446;80;21130;-82
2021/04/05 08:46:51;;;;;;;20.82;9.60;;;;;;;14.22;32.92;97492.70;2222183;80;21166;-78
2021/04/05 08:49:52;;;;;;;19.80;9.20;;;;;;;14.17;34.93;97496.75;2222253;80;21423;-79
2021/04/05 08:52:53;;;;;;;11.30;7.37;;;;;;;14.38;35.36;97478.76;2222302;80;21149;-79
2021/04/05 08:55:54;;;;;;;20.02;8.23;;;;;;;14.46;33.84;97486.89;2222496;80;21145;-80
2021/04/05 08:58:55;;;;;;;12.45;7.75;;;;;;;14.66;33.91;97466.23;2222397;80;21289;-80
2021/04/05 09:01:57;;;;;;;14.18;8.65;;;;;;;14.73;34.04;97474.81;2222680;80;21168;-81
2021/04/05 09:04:58;;;;;;;21.33;7.42;;;;;;;14.77;35.78;97461.17;2222820;80;21134;-80
2021/04/05 09:07:59;;;;;;;12.28;7.80;;;;;;;15.22;35.38;97454.64;2222813;80;21134;-80
2021/04/05 09:11:00;;;;;;;12.18;7.53;;;;;;;15.60;33.55;97444.38;2222382;80;21102;-79
2021/04/05 09:14:01;;;;;;;11.60;7.62;;;;;;;15.61;32.56;97430.77;2222661;80;21134;-80
2021/04/05 09:17:03;;;;;;;16.87;7.80;;;;;;;15.54;31.85;97434.42;2222398;80;21558;-80
2021/04/05 09:20:04;;;;;;;12.18;7.47;;;;;;;15.75;33.31;97420.68;2222880;80;21284;-80
2021/04/05 09:23:05;;;;;;;16.62;8.08;;;;;;;16.14;32.97;97409.78;2222607;80;21142;-80
2021/04/05 09:26:06;;;;;;;15.60;8.05;;;;;;;16.35;31.86;97395.89;2221645;80;21157;-80
2021/04/05 09:29:07;;;;;;;14.93;7.62;;;;;;;16.22;30.81;97380.11;2220869;80;21245;-79
2021/04/05 09:32:09;;;;;;;12.70;7.25;;;;;;;15.73;30.06;97375.60;2210954;80;21142;-79
2021/04/05 09:35:10;;;;;;;14.73;7.65;;;;;;;15.59;31.09;97377.32;2210132;81;21127;-78
2021/04/05 09:38:11;;;;;;;15.72;7.50;;;;;;;15.54;30.00;97367.36;2210218;81;21305;-78
2021/04/05 09:41:12;;;;;;;16.05;6.90;;;;;;;15.43;30.06;97356.32;2210126;81;21257;-79
2021/04/05 09:44:13;;;;;;;16.07;7.28;;;;;;;15.36;30.23;97356.97;2210231;81;21134;-79
2021/04/05 09:47:15;;;;;;;19.90;7.33;;;;;;;15.62;30.10;97350.95;2210097;81;21264;-79
2021/04/05 09:50:16;;;;;;;12.25;6.92;;;;;;;15.65;29.48;97355.26;2210175;81;21269;-79
2021/04/05 09:53:17;;;;;;;14.05;7.40;;;;;;;15.69;29.65;97355.11;2210221;81;21142;-78
2021/04/05 09:56:18;;;;;;;12.60;6.75;;;;;;;15.73;29.76;97340.09;2210027;81;21292;-79
2021/04/05 09:59:19;;;;;;;9.90;6.22;;;;;;;15.65;29.68;97337.70;2210599;81;21114;-79
2021/04/05 10:02:20;;;;;;;12.78;6.15;;;;;;;15.79;29.49;97334.17;2210438;81;21293;-79
2021/04/05 10:05:21;;;;;;;13.00;6.03;;;;;;;15.94;28.54;97313.06;2210443;81;21272;-79
2021/04/05 10:08:22;;;;;;;9.55;6.00;;;;;;;15.89;28.58;97321.56;2210442;81;21125;-79
2021/04/05 10:11:24;;;;;;;13.05;6.47;;;;;;;15.99;29.39;97315.09;2210613;81;21166;-78
2021/04/05 10:14:27;;;;;;;11.38;6.28;;;;;;;16.20;28.42;97318.30;2211548;81;21170;-79
2021/04/05 10:17:28;;;;;;;13.98;6.00;;;;;;;16.28;28.79;97315.85;2210423;81;21304;-80
2021/04/05 10:20:29;;;;;;;12.55;6.20;;;;;;;16.30;28.03;97314.88;2210907;81;21408;-78
2021/04/05 10:23:30;;;;;;;10.88;5.92;;;;;;;16.09;27.83;97309.05;2210471;81;21138;-79
2021/04/05 10:26:31;;;;;;;11.73;5.97;;;;;;;16.11;28.22;97300.64;2210505;81;21408;-79
2021/04/05 10:29:32;;;;;;;13.00;5.83;;;;;;;16.11;28.13;97287.02;2210299;81;21240;-79
2021/04/05 10:32:33;;;;;;;9.98;6.72;;;;;;;16.11;28.25;97261.16;2210345;81;21142;-79
2021/04/05 10:35:34;;;;;;;12.20;5.78;;;;;;;16.03;28.38;97272.41;2210226;81;21248;-79
2021/04/05 10:38:36;;;;;;;10.28;6.50;;;;;;;16.01;28.71;97265.03;2210316;81;21144;-79
2021/04/05 10:41:37;;;;;;;10.10;5.90;;;;;;;16.09;29.34;97262.98;2210368;81;21264;-79
2021/04/05 10:44:38;;;;;;;8.80;4.97;;;;;;;16.18;28.50;97256.94;2210334;81;21264;-80
2021/04/05 10:47:39;;;;;;;13.10;5.65;;;;;;;16.11;28.08;97251.49;2210261;81;21389;-80
2021/04/05 10:50:40;;;;;;;7.92;5.53;;;;;;;16.04;28.18;97253.08;2210432;81;21652;-79
2021/04/05 10:53:41;;;;;;;11.50;5.97;;;;;;;16.09;27.85;97245.88;2210239;81;21253;-81
2021/04/05 10:56:42;;;;;;;10.55;5.58;;;;;;;15.91;28.02;97253.51;2210223;81;21162;-78
2021/04/05 10:59:43;;;;;;;15.98;6.97;;;;;;;15.83;28.54;97241.53;2210314;81;21702;-79
2021/04/05 11:02:44;;;;;;;8.83;6.08;;;;;;;15.97;28.41;97240.59;2210497;81;21186;-79
2021/04/05 11:05:45;;;;;;;13.60;6.45;;;;;;;15.91;28.57;97236.41;2210219;81;21121;-78
2021/04/05 11:08:48;;;;;;;14.15;5.97;;;;;;;15.88;27.37;97233.02;2210334;81;21245;-78
2021/04/05 11:11:49;;;;;;;13.62;5.50;;;;;;;15.73;28.35;97226.97;2210268;81;21248;-79
2021/04/05 11:14:50;;;;;;;11.63;5.83;;;;;;;15.63;28.12;97219.85;2210782;81;21385;-79
2021/04/05 11:17:51;;;;;;;10.25;6.25;;;;;;;15.53;28.15;97222.33;2210165;81;21295;-80
2021/04/05 11:20:52;;;;;;;13.00;6.47;;;;;;;15.38;27.89;97213.63;2210678;81;21279;-79
2021/04/05 11:23:53;;;;;;;9.33;5.00;;;;;;;15.36;28.61;97204.94;2210471;81;21135;-80
2021/04/05 11:26:54;;;;;;;20.43;6.00;;;;;;;15.51;28.58;97205.73;2209995;81;21265;-78
2021/04/05 11:29:55;;;;;;;11.30;5.95;;;;;;;15.64;28.25;97191.33;2210533;80;21146;-79
2021/04/05 11:32:56;;;;;;;13.08;5.75;;;;;;;15.55;27.59;97195.52;2220840;80;21311;-78
2021/04/05 11:35:57;;;;;;;11.88;6.35;;;;;;;15.39;27.77;97191.69;2220949;80;21133;-78
2021/04/05 11:38:58;;;;;;;13.18;5.95;;;;;;;15.24;28.26;97186.48;2221014;80;21558;-79
2021/04/05 11:41:59;;;;;;;9.80;5.45;;;;;;;15.18;28.78;97188.86;2221006;80;21432;-78
2021/04/05 11:45:02;;;;;;;10.90;5.95;;;;;;;15.22;28.71;97194.42;2220945;80;21260;-78
2021/04/05 11:48:03;;;;;;;9.65;6.05;;;;;;;15.18;28.24;97175.72;2220777;80;21280;-78
2021/04/05 11:51:04;;;;;;;14.15;6.22;;;;;;;15.04;28.48;97174.45;2220799;80;21110;-78
2021/04/05 11:54:05;;;;;;;12.95;5.95;;;;;;;15.06;29.01;97164.30;2220978;80;21264;-79
2021/04/05 11:57:06;;;;;;;12.05;6.55;;;;;;;15.23;29.01;97165.91;2220857;80;21582;-79
2021/04/05 12:00:07;;;;;;;9.78;6.10;;;;;;;15.56;29.32;97166.54;2221062;80;21137;-79
2021/04/05 12:03:08;;;;;;;16.02;6.95;;;;;;;15.78;28.77;97150.92;2221136;80;21273;-78
2021/04/05 12:06:09;;;;;;;11.05;5.92;;;;;;;15.88;28.97;97159.34;2220788;80;21138;-78
2021/04/05 12:09:10;;;;;;;9.30;5.70;;;;;;;15.93;27.72;97149.52;2220937;80;21256;-78
2021/04/05 12:12:11;;;;;;;11.78;6.45;;;;;;;16.01;27.82;97147.46;2221061;80;21530;-79
2021/04/05 12:15:12;;;;;;;16.60;7.55;;;;;;;15.91;28.14;97162.73;2220808;80;21157;-78
2021/04/05 12:18:13;;;;;;;16.48;6.70;;;;;;;15.88;28.25;97153.62;2221085;80;21142;-79
2021/04/05 12:21:14;;;;;;;11.35;6.83;;;;;;;15.93;28.17;97138.53;2220812;80;21257;-80
2021/04/05 12:24:15;;;;;;;11.85;6.58;;;;;;;16.01;28.36;97129.50;2220887;80;21142;-79
2021/04/05 12:27:16;;;;;;;14.55;6.00;;;;;;;16.26;28.26;97127.66;2220763;80;21574;-78
2021/04/05 12:30:24;;;;;;;9.60;6.60;;;;;;;16.30;27.98;97134.53;2219552;80;21277;-79
2021/04/05 12:33:26;;;;;;;9.78;6.45;;;;;;;16.27;27.37;97118.84;2210426;81;21408;-79
2021/04/05 12:36:27;;;;;;;11.80;7.28;;;;;;;16.15;27.13;97092.53;2210231;81;21292;-78
2021/04/05 12:39:28;;;;;;;11.05;5.80;;;;;;;15.87;27.99;97107.64;2210349;81;21122;-80
2021/04/05 12:42:29;;;;;;;9.60;6.53;;;;;;;15.78;28.25;97110.15;2210231;81;21261;-80
2021/04/05 12:45:30;;;;;;;12.85;6.87;;;;;;;15.80;28.29;97101.75;2210137;81;21519;-79
2021/04/05 12:48:31;;;;;;;11.65;6.37;;;;;;;15.85;28.42;97097.63;2210481;81;21106;-78
2021/04/05 12:51:32;;;;;;;16.60;7.37;;;;;;;15.89;28.70;97097.46;2210131;81;21256;-78
2021/04/05 12:54:34;;;;;;;11.28;6.65;;;;;;;15.82;28.74;97080.19;2210155;81;21169;-78
2021/04/05 12:57:35;;;;;;;14.43;7.28;;;;;;;15.84;28.81;97059.08;2210143;81;21280;-79
2021/04/05 13:00:37;;;;;;;12.10;7.58;;;;;;;15.64;29.21;97071.66;2210163;81;21260;-80
2021/04/05 13:03:38;;;;;;;16.75;7.33;;;;;;;15.51;29.58;97054.54;2210291;81;21161;-78
2021/04/05 13:06:39;;;;;;;11.45;6.12;;;;;;;15.46;29.67;97045.95;2210050;81;21271;-78
2021/04/05 13:09:40;;;;;;;9.60;5.83;;;;;;;15.39;29.63;97046.63;2210306;81;21249;-78
2021/04/05 13:12:41;;;;;;;12.68;7.12;;;;;;;15.30;29.75;97041.70;2210058;81;21310;-78
2021/04/05 13:15:42;;;;;;;10.18;5.95;;;;;;;15.32;30.20;97039.88;2210254;81;21241;-80
2021/04/05 13:18:43;;;;;;;10.45;6.30;;;;;;;15.43;30.79;97032.92;2210270;81;21464;-79
2021/04/05 13:21:44;;;;;;;10.03;5.85;;;;;;;15.45;30.78;97028.47;2210321;81;21142;-78
2021/04/05 13:24:45;;;;;;;9.98;6.22;;;;;;;15.26;29.81;97031.76;2210125;81;21269;-78
2021/04/05 13:27:46;;;;;;;12.43;6.08;;;;;;;14.97;30.26;97037.17;2210189;81;21114;-79
2021/04/05 13:30:48;;;;;;;11.15;6.10;;;;;;;14.78;30.18;97039.56;2210071;80;21135;-77
2021/04/05 13:33:49;;;;;;;15.83;6.42;;;;;;;14.65;30.64;97039.08;2210032;81;21276;-77
2021/04/05 13:36:52;;;;;;;14.28;6.62;;;;;;;14.55;30.85;97032.41;2210036;81;21291;-79
2021/04/05 13:39:53;;;;;;;9.83;6.95;;;;;;;14.43;30.98;97022.31;2210094;81;21249;-78
2021/04/05 13:42:54;;;;;;;14.20;6.20;;;;;;;14.30;31.25;97011.77;2210220;81;21252;-78
2021/04/05 13:45:55;;;;;;;12.93;6.90;;;;;;;14.16;31.79;97028.41;2210155;81;21268;-79
2021/04/05 13:48:56;;;;;;;13.22;6.40;;;;;;;14.10;31.72;97036.02;2210376;81;21142;-79
2021/04/05 13:51:57;;;;;;;14.07;5.62;;;;;;;13.98;31.66;97043.81;2210332;81;21256;-78
2021/04/05 13:54:58;;;;;;;16.10;5.97;;;;;;;13.88;31.52;97042.36;2210290;81;21261;-79
2021/04/05 13:57:59;;;;;;;9.83;5.33;;;;;;;13.84;31.62;97034.15;2210197;81;21197;-79
2021/04/05 14:01:00;;;;;;;9.23;6.08;;;;;;;13.84;31.53;97043.33;2210385;81;21137;-78
2021/04/05 14:04:01;;;;;;;14.25;6.72;;;;;;;13.78;31.90;97047.45;2210585;81;21154;-79